KLNR/LNR METAR and TAF weather

Enter ICAO airport designator
Station Type Date Time Source
KLNR METAR 2023/02/04 02:56 UTC NOAA

KLNR 040256Z AUTO 13006KT 10SM OVC046 M14/M22 A3044 RMK AO2 SLP323 T11441222 58021


Station Type Date Time Source
KLNR Decoded METAR 2023/02/04 02:56 UTC NOAA

LONE ROCK TRI-COUNTY REG, WI, United States (KLNR) 43-13N 090-11W 217M
Feb 03, 2023 - 09:56 PM EST / 2023.02.04 0256 UTC
Wind: from the SE (130 degrees) at 7 MPH (6 KT):0
Visibility: 10 mile(s):0
Sky conditions: overcast
Temperature: 6.1 F (-14.4 C)
Windchill: -5 F (-21 C):2
Dew Point: -8.0 F (-22.2 C)
Relative Humidity: 51%
Pressure (altimeter): 30.44 in. Hg (1030 hPa)
Pressure tendency: 0.06 inches (2.1 hPa) lower than three hours ago
ob: KLNR 040256Z AUTO 13006KT 10SM OVC046 M14/M22 A3044 RMK AO2 SLP323 T11441222 58021
cycle: 3

Station Type Date Time Source
KLNR TAF UTC NOAA

Error!

Example: see airport list